Time;durP1;ratioP1;P1;durP2;ratioP2;P2;SDS_P1;SDS_P2;PMS_P1;PMS_P2;Temp;Humidity;BMP_temperature;BMP_pressure;BME280_temperature;BME280_humidity;BME280_pressure;Samples;Min_cycle;Max_cycle;Signal;HPM_P1;HPM_P2
2023/05/02 00:01:53;;;;;;;0.40;0.40;;;;;;;4.52;99.49;100039.25;5065452;28;20114;-69
2023/05/02 00:04:18;;;;;;;0.43;0.43;;;;;;;4.50;99.62;100048.63;5047483;28;20031;-70
2023/05/02 00:06:45;;;;;;;0.40;0.40;;;;;;;4.56;99.65;100047.00;5064876;28;20032;-71
2023/05/02 00:09:11;;;;;;;0.50;0.50;;;;;;;4.54;99.54;100066.69;5064983;28;20032;-70
2023/05/02 00:11:36;;;;;;;0.50;0.50;;;;;;;4.49;99.51;100055.47;5065400;28;20080;-71
2023/05/02 00:14:02;;;;;;;0.47;0.47;;;;;;;4.49;99.62;100054.63;5064911;28;20053;-70
2023/05/02 00:16:27;;;;;;;0.40;0.40;;;;;;;4.53;99.63;100066.66;5065048;28;20033;-70
2023/05/02 00:18:52;;;;;;;0.40;0.40;;;;;;;4.50;99.55;100059.78;5063702;28;20052;-70
2023/05/02 00:21:18;;;;;;;0.50;0.50;;;;;;;4.47;99.42;100065.75;5063606;28;20113;-71
2023/05/02 00:23:43;;;;;;;0.45;0.45;;;;;;;4.46;99.24;100065.72;5064755;28;20027;-71
2023/05/02 00:26:09;;;;;;;0.50;0.50;;;;;;;4.45;99.16;100074.28;5064838;28;20082;-70
2023/05/02 00:28:34;;;;;;;0.40;0.40;;;;;;;4.37;99.01;100066.50;5064929;28;20024;-72
2023/05/02 00:31:00;;;;;;;0.50;0.50;;;;;;;4.41;99.19;100078.53;5064249;28;20045;-71
2023/05/02 00:33:25;;;;;;;0.40;0.40;;;;;;;4.29;99.03;100070.69;5046370;28;20032;-71
2023/05/02 00:35:51;;;;;;;0.40;0.40;;;;;;;4.27;99.08;100074.94;5064722;28;20059;-71
2023/05/02 00:38:16;;;;;;;0.40;0.40;;;;;;;4.25;99.24;100084.34;5063245;28;20028;-71
2023/05/02 00:40:47;;;;;;;0.40;0.40;;;;;;;4.22;99.27;100087.72;5064308;28;20086;-72
2023/05/02 00:43:14;;;;;;;0.47;0.47;;;;;;;4.21;99.22;100098.84;5044720;28;20033;-72
2023/05/02 00:45:42;;;;;;;0.40;0.40;;;;;;;4.20;99.39;100100.56;5064691;28;20021;-72
2023/05/02 00:48:08;;;;;;;0.40;0.40;;;;;;;4.14;99.40;100108.19;5064375;28;20032;-72
2023/05/02 00:50:41;;;;;;;0.40;0.40;;;;;;;4.10;99.32;100098.72;5046544;28;20025;-73
2023/05/02 00:53:08;;;;;;;0.40;0.40;;;;;;;4.08;99.15;100110.66;5064530;28;20029;-73
2023/05/02 00:55:35;;;;;;;0.40;0.40;;;;;;;4.05;99.30;100108.06;5064493;28;20080;-74
2023/05/02 00:58:07;;;;;;;0.40;0.40;;;;;;;4.04;99.45;100111.50;5064368;28;20065;-73
2023/05/02 01:00:52;;;;;;;0.40;0.40;;;;;;;4.02;99.41;100108.91;5064498;28;20029;-74
2023/05/02 01:03:27;;;;;;;0.50;0.50;;;;;;;4.01;99.47;100119.16;5046025;28;20045;-72
2023/05/02 01:06:06;;;;;;;0.47;0.47;;;;;;;3.93;99.27;100116.47;5064250;28;20034;-72
2023/05/02 01:08:42;;;;;;;0.40;0.40;;;;;;;3.90;99.25;100119.84;5064404;28;20040;-72
2023/05/02 01:11:17;;;;;;;0.50;0.50;;;;;;;3.86;99.31;100115.53;5064307;28;20093;-72
2023/05/02 01:13:44;;;;;;;0.40;0.40;;;;;;;3.78;99.18;100114.53;5064043;28;20081;-74
2023/05/02 01:16:12;;;;;;;0.40;0.40;;;;;;;3.80;99.20;100134.25;5064141;28;20096;-72
2023/05/02 01:18:40;;;;;;;0.50;0.50;;;;;;;3.73;99.13;100129.88;5064103;28;20029;-71
2023/05/02 01:21:09;;;;;;;0.40;0.40;;;;;;;3.72;98.99;100129.00;5064227;28;20025;-71
2023/05/02 01:23:46;;;;;;;0.50;0.50;;;;;;;3.69;99.10;100135.81;5062852;28;20031;-71
2023/05/02 01:26:36;;;;;;;0.50;0.50;;;;;;;3.63;98.85;100140.81;5063779;28;20025;-72
2023/05/02 01:29:05;;;;;;;0.40;0.40;;;;;;;3.51;98.74;100144.06;5063888;28;20098;-71
2023/05/02 01:31:35;;;;;;;0.40;0.40;;;;;;;3.51;98.64;100157.78;5063793;28;20043;-72
2023/05/02 01:34:02;;;;;;;0.40;0.40;;;;;;;3.43;98.58;100157.66;5063760;28;20021;-71
2023/05/02 01:36:31;;;;;;;0.47;0.47;;;;;;;3.39;98.50;100161.00;5063799;28;20035;-72
2023/05/02 01:38:59;;;;;;;0.40;0.40;;;;;;;3.38;98.41;100171.22;5063962;28;20460;-72
2023/05/02 01:41:27;;;;;;;0.50;0.50;;;;;;;3.31;98.37;100173.69;5045878;28;20193;-71
2023/05/02 01:43:57;;;;;;;0.50;0.50;;;;;;;3.29;98.36;100183.06;5048496;28;20017;-72
2023/05/02 01:46:25;;;;;;;0.40;0.40;;;;;;;3.25;98.54;100185.53;5067905;28;20074;-71
2023/05/02 01:48:51;;;;;;;0.40;0.40;;;;;;;3.26;98.53;100189.84;5049755;28;20088;-72
2023/05/02 01:51:19;;;;;;;0.50;0.50;;;;;;;3.20;98.49;100191.47;5067888;28;20025;-71
2023/05/02 01:53:49;;;;;;;0.40;0.40;;;;;;;3.18;98.46;100193.13;5067860;28;20029;-72
2023/05/02 01:56:18;;;;;;;0.40;0.40;;;;;;;3.15;98.34;100190.50;5066550;28;20017;-71
2023/05/02 01:58:46;;;;;;;0.50;0.50;;;;;;;3.10;98.31;100193.00;5050019;28;20146;-69
2023/05/02 02:01:13;;;;;;;0.50;0.50;;;;;;;3.10;98.60;100187.84;5066630;28;20111;-71
2023/05/02 02:03:39;;;;;;;0.50;0.50;;;;;;;3.05;98.25;100184.34;5066358;28;20044;-72
2023/05/02 02:06:06;;;;;;;0.50;0.50;;;;;;;3.04;98.34;100192.00;5066606;28;20029;-69
2023/05/02 02:08:32;;;;;;;0.50;0.50;;;;;;;3.01;98.43;100191.94;5048542;28;20477;-73
2023/05/02 02:11:03;;;;;;;0.47;0.47;;;;;;;3.05;98.40;100191.19;5049682;28;20060;-72
2023/05/02 02:13:42;;;;;;;0.50;0.50;;;;;;;2.98;98.42;100205.59;5067537;28;20054;-70
2023/05/02 02:16:11;;;;;;;0.50;0.50;;;;;;;3.01;98.25;100215.03;5049483;28;20017;-71
2023/05/02 02:18:38;;;;;;;0.50;0.50;;;;;;;2.95;98.21;100208.97;5067292;28;20032;-72
2023/05/02 02:21:10;;;;;;;0.50;0.50;;;;;;;2.97;98.22;100221.81;5067460;28;20059;-70
2023/05/02 02:23:38;;;;;;;0.60;0.60;;;;;;;2.92;98.19;100226.84;5046844;28;20020;-71
2023/05/02 02:26:05;;;;;;;0.40;0.40;;;;;;;2.90;97.93;100227.63;5067228;28;20045;-70
2023/05/02 02:28:30;;;;;;;0.43;0.43;;;;;;;2.86;98.06;100226.72;5065898;28;20425;-72
2023/05/02 02:30:56;;;;;;;0.50;0.50;;;;;;;2.83;98.07;100218.94;5067222;28;20021;-71
2023/05/02 02:33:28;;;;;;;0.50;0.50;;;;;;;2.82;98.09;100220.66;5063978;28;20228;-70
2023/05/02 02:36:00;;;;;;;0.60;0.60;;;;;;;2.80;98.08;100216.31;5066353;28;20025;-71
2023/05/02 02:38:37;;;;;;;0.40;0.40;;;;;;;2.79;98.13;100219.72;5066990;28;20025;-70
2023/05/02 02:41:17;;;;;;;0.50;0.50;;;;;;;2.80;98.08;100226.59;5048880;28;20044;-71
2023/05/02 02:43:48;;;;;;;0.50;0.50;;;;;;;2.80;97.99;100232.59;5048737;28;20048;-70
2023/05/02 02:46:51;;;;;;;0.60;0.60;;;;;;;2.79;97.85;100243.69;5066985;28;20033;-71
2023/05/02 02:49:31;;;;;;;0.50;0.50;;;;;;;2.76;97.82;100242.75;5048201;28;20025;-71
2023/05/02 02:52:05;;;;;;;0.47;0.47;;;;;;;2.74;97.83;100242.72;5066658;28;20028;-70
2023/05/02 02:54:54;;;;;;;0.50;0.50;;;;;;;2.70;97.75;100252.03;5065653;28;20024;-70
2023/05/02 02:57:36;;;;;;;0.50;0.50;;;;;;;2.71;97.81;100251.22;5066386;28;20044;-71
2023/05/02 03:00:07;;;;;;;;;;;;;;;2.71;97.59;100255.47;5048974;28;20116;-70
2023/05/02 03:02:35;;;;;;;0.50;0.50;;;;;;;2.64;97.68;100253.59;5048151;28;19923;-69
2023/05/02 03:05:04;;;;;;;0.50;0.50;;;;;;;2.57;97.68;100248.34;5066601;28;20082;-70
2023/05/02 03:07:31;;;;;;;0.50;0.50;;;;;;;2.59;97.66;100249.25;5066523;28;20052;-71
2023/05/02 03:09:57;;;;;;;0.50;0.50;;;;;;;2.59;97.64;100258.63;5066515;28;20021;-70
2023/05/02 03:12:22;;;;;;;0.40;0.40;;;;;;;2.62;97.61;100263.81;5066086;28;20021;-69
2023/05/02 03:14:48;;;;;;;0.40;0.40;;;;;;;2.59;97.67;100259.50;5066478;28;20016;-70
2023/05/02 03:17:14;;;;;;;0.50;0.50;;;;;;;2.63;97.60;100260.44;5066251;28;20012;-71
2023/05/02 03:19:39;;;;;;;0.50;0.50;;;;;;;2.59;97.69;100262.06;5047489;28;20504;-70
2023/05/02 03:22:05;;;;;;;0.50;0.50;;;;;;;2.66;97.92;100275.00;5064072;28;20053;-70
2023/05/02 03:24:30;;;;;;;0.50;0.50;;;;;;;2.68;97.98;100284.47;5066046;28;20040;-70
2023/05/02 03:26:57;;;;;;;0.50;0.50;;;;;;;2.70;97.99;100287.06;5066151;28;20087;-71
2023/05/02 03:29:24;;;;;;;0.50;0.50;;;;;;;2.72;98.20;100286.28;5066250;28;20032;-70
2023/05/02 03:31:50;;;;;;;0.50;0.50;;;;;;;2.71;98.22;100287.09;5047980;28;20353;-70
2023/05/02 03:34:16;;;;;;;0.50;0.50;;;;;;;2.78;98.48;100285.53;5065622;28;20032;-70
2023/05/02 03:36:41;;;;;;;0.45;0.45;;;;;;;2.92;98.65;100288.41;5066057;28;20025;-70
2023/05/02 03:39:06;;;;;;;0.50;0.50;;;;;;;3.12;98.83;100300.75;5065853;28;20024;-70
2023/05/02 03:41:32;;;;;;;0.40;0.40;;;;;;;3.30;99.30;100294.28;5065610;28;20040;-70
2023/05/02 03:43:57;;;;;;;0.50;0.50;;;;;;;3.61;100.00;100297.41;5066168;28;20092;-69
2023/05/02 03:46:24;;;;;;;0.40;0.40;;;;;;;3.88;100.00;100306.47;5047738;28;20021;-67
2023/05/02 03:48:49;;;;;;;0.40;0.40;;;;;;;4.11;100.00;100300.84;5047608;28;20021;-69
2023/05/02 03:51:15;;;;;;;0.40;0.40;;;;;;;4.27;100.00;100306.22;5047613;28;20044;-69
2023/05/02 03:53:40;;;;;;;0.50;0.50;;;;;;;4.42;100.00;100306.47;5047657;28;20036;-69
2023/05/02 03:56:07;;;;;;;0.40;0.40;;;;;;;4.64;100.00;100300.78;5065523;28;20021;-68
2023/05/02 03:58:35;;;;;;;0.40;0.40;;;;;;;4.96;100.00;100314.09;5065727;28;20080;-67
2023/05/02 04:01:00;;;;;;;0.40;0.40;;;;;;;5.18;100.00;100314.38;5065652;28;20044;-69
2023/05/02 04:03:27;;;;;;;0.40;0.40;;;;;;;5.40;100.00;100324.06;5065086;28;20482;-67
2023/05/02 04:05:52;;;;;;;0.40;0.40;;;;;;;5.60;100.00;100319.13;5065538;28;20036;-70
2023/05/02 04:08:18;;;;;;;0.40;0.40;;;;;;;5.82;100.00;100321.91;5064149;28;20029;-70
2023/05/02 04:10:43;;;;;;;0.40;0.40;;;;;;;5.99;100.00;100318.66;5065145;28;20021;-71
2023/05/02 04:13:09;;;;;;;0.40;0.40;;;;;;;6.26;100.00;100323.19;5065049;28;20025;-71
2023/05/02 04:15:34;;;;;;;0.40;0.40;;;;;;;6.55;100.00;100335.44;5065166;28;20044;-73
2023/05/02 04:17:59;;;;;;;0.40;0.40;;;;;;;6.94;100.00;100333.13;5047087;28;20025;-71
2023/05/02 04:20:25;;;;;;;0.40;0.40;;;;;;;7.39;100.00;100335.03;5065269;28;20028;-71
2023/05/02 04:22:51;;;;;;;0.40;0.40;;;;;;;7.83;100.00;100334.28;5064902;28;20075;-71
2023/05/02 04:25:16;;;;;;;0.30;0.30;;;;;;;8.41;100.00;100341.22;5063730;28;20028;-70
2023/05/02 04:27:42;;;;;;;0.40;0.40;;;;;;;9.04;100.00;100343.72;5065012;28;20029;-70
2023/05/02 04:30:11;;;;;;;0.40;0.40;;;;;;;9.58;100.00;100355.59;5065192;28;20024;-74
2023/05/02 04:32:37;;;;;;;0.32;0.32;;;;;;;10.11;100.00;100349.22;5062790;28;20025;-72
2023/05/02 04:35:03;;;;;;;0.30;0.30;;;;;;;10.60;100.00;100355.75;5046853;28;20020;-74
2023/05/02 04:37:28;;;;;;;0.40;0.40;;;;;;;11.01;100.00;100357.94;5064858;28;20138;-74
2023/05/02 04:39:54;;;;;;;0.30;0.30;;;;;;;11.26;100.00;100361.13;5064983;28;20025;-74
2023/05/02 04:42:19;;;;;;;0.30;0.30;;;;;;;11.47;100.00;100366.09;5064745;28;20480;-73
2023/05/02 04:44:44;;;;;;;0.30;0.30;;;;;;;11.55;100.00;100371.19;5064402;28;20088;-72
2023/05/02 04:47:10;;;;;;;0.30;0.30;;;;;;;11.84;100.00;100378.56;5046615;28;20495;-72
2023/05/02 04:49:36;;;;;;;0.30;0.30;;;;;;;12.12;100.00;100372.97;5046434;28;20395;-72
2023/05/02 04:52:01;;;;;;;0.30;0.30;;;;;;;12.60;100.00;100380.91;5043865;28;20028;-72
2023/05/02 04:54:27;;;;;;;0.30;0.30;;;;;;;13.06;100.00;100378.34;5063163;28;20025;-71
2023/05/02 04:56:52;;;;;;;0.20;0.20;;;;;;;13.61;100.00;100396.44;5064523;28;20196;-71
2023/05/02 04:59:18;;;;;;;0.20;0.20;;;;;;;13.97;100.00;100399.09;5064552;28;20044;-73
2023/05/02 05:01:44;;;;;;;0.30;0.30;;;;;;;14.27;100.00;100395.81;5064274;28;20021;-73
2023/05/02 05:04:09;;;;;;;0.20;0.20;;;;;;;14.64;100.00;100401.88;5064381;28;20021;-71
2023/05/02 05:06:35;;;;;;;0.30;0.30;;;;;;;14.95;98.93;100397.63;5064180;28;20357;-66
2023/05/02 05:09:01;;;;;;;0.30;0.30;;;;;;;15.28;98.10;100397.59;5064464;28;20029;-74
2023/05/02 05:11:26;;;;;;;0.20;0.20;;;;;;;15.65;97.63;100418.38;5046223;28;20523;-75
2023/05/02 05:13:52;;;;;;;0.30;0.30;;;;;;;15.96;96.98;100406.94;5064117;28;20229;-71
2023/05/02 05:16:17;;;;;;;0.20;0.20;;;;;;;16.24;95.96;100414.00;5064210;28;20047;-72
2023/05/02 05:18:43;;;;;;;0.20;0.20;;;;;;;16.25;92.76;100418.31;5063261;28;20029;-72
2023/05/02 05:21:09;;;;;;;0.20;0.20;;;;;;;16.25;93.52;100418.31;5064058;28;20029;-74
2023/05/02 05:23:35;;;;;;;0.20;0.20;;;;;;;16.58;94.41;100431.22;5045806;28;20021;-73
2023/05/02 05:26:11;;;;;;;0.20;0.20;;;;;;;16.91;94.02;100426.66;5063919;28;20108;-72
2023/05/02 05:28:37;;;;;;;0.30;0.30;;;;;;;17.32;93.19;100436.59;5062817;28;20087;-72
2023/05/02 05:31:11;;;;;;;0.20;0.20;;;;;;;17.57;93.11;100433.94;5064036;28;20350;-71
2023/05/02 05:33:37;;;;;;;0.20;0.20;;;;;;;17.95;92.26;100440.41;5063656;28;20292;-72
2023/05/02 05:36:16;;;;;;;0.20;0.20;;;;;;;18.04;89.89;100432.16;5059371;28;20035;-72
2023/05/02 05:38:42;;;;;;;0.20;0.20;;;;;;;18.03;89.25;100445.38;5063747;28;20017;-72
2023/05/02 05:41:08;;;;;;;0.20;0.20;;;;;;;18.05;88.94;100446.16;5064251;28;20048;-72
2023/05/02 05:43:33;;;;;;;0.20;0.20;;;;;;;17.60;84.59;100440.84;5063749;28;20029;-73
2023/05/02 05:45:59;;;;;;;0.20;0.20;;;;;;;17.29;86.90;100449.84;5063730;28;20017;-73
2023/05/02 05:48:25;;;;;;;0.20;0.20;;;;;;;17.30;88.08;100443.69;5045679;28;20021;-71
2023/05/02 05:50:53;;;;;;;0.20;0.20;;;;;;;17.12;87.63;100455.69;5045764;28;20017;-73
2023/05/02 05:53:19;;;;;;;0.20;0.20;;;;;;;17.33;90.47;100449.66;5063673;28;20519;-72
2023/05/02 05:55:44;;;;;;;0.25;0.25;;;;;;;17.26;89.83;100460.44;5063677;28;20047;-73
2023/05/02 05:58:10;;;;;;;0.22;0.22;;;;;;;16.78;79.93;100469.00;5045770;28;20024;-72
2023/05/02 06:00:38;;;;;;;37.47;1.75;;;;;;;16.48;84.11;100474.38;5045758;28;20049;-72
2023/05/02 06:03:04;;;;;;;0.40;0.40;;;;;;;16.60;88.21;100480.94;5063457;28;20056;-73
2023/05/02 06:05:30;;;;;;;0.20;0.20;;;;;;;16.81;87.44;100475.91;5063252;28;20068;-72
2023/05/02 06:07:56;;;;;;;0.25;0.25;;;;;;;16.21;77.12;100485.66;5045321;28;20029;-70
2023/05/02 06:10:22;;;;;;;0.20;0.20;;;;;;;15.41;77.11;100494.91;5063750;28;20063;-72
2023/05/02 06:12:48;;;;;;;0.30;0.30;;;;;;;15.34;84.95;100493.34;5063653;28;20080;-73
2023/05/02 06:15:13;;;;;;;0.20;0.20;;;;;;;15.70;88.61;100500.22;5063907;28;20116;-72
2023/05/02 06:17:39;;;;;;;0.20;0.20;;;;;;;15.94;83.48;100492.56;5063588;28;20488;-72
2023/05/02 06:20:05;;;;;;;0.30;0.30;;;;;;;15.23;77.81;100506.69;5045580;28;20025;-72
2023/05/02 06:22:30;;;;;;;0.30;0.30;;;;;;;14.74;82.53;100518.31;5063836;28;20024;-73
2023/05/02 06:24:56;;;;;;;0.40;0.40;;;;;;;15.07;88.62;100512.34;5063505;28;20032;-73
2023/05/02 06:27:22;;;;;;;0.35;0.35;;;;;;;15.51;93.07;100526.88;5062181;28;20044;-72
2023/05/02 06:29:50;;;;;;;0.45;0.45;;;;;;;16.13;89.30;100528.69;5063162;28;20021;-75
2023/05/02 06:32:15;;;;;;;0.30;0.30;;;;;;;16.59;91.95;100536.91;5067197;28;20540;-74
2023/05/02 06:34:41;;;;;;;0.30;0.30;;;;;;;17.07;93.61;100538.00;5049274;28;20032;-74
2023/05/02 06:37:06;;;;;;;0.57;0.57;;;;;;;17.39;90.02;100548.31;5066147;28;20028;-72
2023/05/02 06:39:32;;;;;;;0.20;0.20;;;;;;;17.69;85.39;100549.91;5065566;28;20381;-73
2023/05/02 06:41:57;;;;;;;0.20;0.20;;;;;;;18.04;88.64;100541.63;5067256;28;20025;-72
2023/05/02 06:44:23;;;;;;;0.25;0.25;;;;;;;18.23;85.53;100547.06;5067141;28;20033;-72
2023/05/02 06:46:49;;;;;;;0.20;0.20;;;;;;;17.30;75.68;100554.72;5049336;28;20096;-73
2023/05/02 06:49:15;;;;;;;0.20;0.20;;;;;;;16.56;76.38;100555.34;5065911;28;20052;-71
2023/05/02 06:51:40;;;;;;;0.32;0.32;;;;;;;16.34;79.75;100559.47;5049002;28;20035;-71
2023/05/02 06:54:06;;;;;;;0.45;0.45;;;;;;;16.15;80.89;100563.56;5065540;28;20017;-72
2023/05/02 06:56:31;;;;;;;0.38;0.38;;;;;;;16.49;77.00;100565.16;5067065;28;20028;-74
2023/05/02 06:58:57;;;;;;;0.30;0.30;;;;;;;16.64;82.06;100573.44;5065753;28;20043;-72
2023/05/02 07:01:22;;;;;;;0.20;0.20;;;;;;;17.16;87.65;100583.19;5065134;28;20028;-73
2023/05/02 07:03:48;;;;;;;0.20;0.20;;;;;;;17.44;82.02;100587.53;5066403;28;20112;-72
2023/05/02 07:06:13;;;;;;;0.20;0.20;;;;;;;17.89;85.28;100588.56;5066588;28;20037;-72
2023/05/02 07:08:38;;;;;;;0.20;0.20;;;;;;;18.03;83.08;100590.69;5066300;28;20116;-72
2023/05/02 07:11:04;;;;;;;0.38;0.38;;;;;;;18.41;85.90;100598.09;5066377;28;20020;-71
2023/05/02 07:13:29;;;;;;;0.20;0.20;;;;;;;18.86;88.54;100595.47;5048624;28;20048;-72
2023/05/02 07:15:55;;;;;;;0.20;0.20;;;;;;;18.98;80.06;100595.91;5066599;28;20290;-71
2023/05/02 07:18:21;;;;;;;0.20;0.20;;;;;;;18.55;72.62;100596.69;5065127;28;20028;-72
2023/05/02 07:20:46;;;;;;;0.20;0.20;;;;;;;17.19;67.06;100604.06;5066422;28;20098;-73
2023/05/02 07:23:12;;;;;;;0.20;0.20;;;;;;;16.45;72.09;100615.94;5066358;28;20027;-71
2023/05/02 07:25:38;;;;;;;0.20;0.20;;;;;;;16.37;71.95;100615.31;5066394;28;20040;-71
2023/05/02 07:28:04;;;;;;;0.20;0.20;;;;;;;16.78;73.89;100615.81;5048399;28;20029;-73
2023/05/02 07:30:30;;;;;;;0.40;0.40;;;;;;;17.49;80.18;100627.59;5047369;28;20024;-71
2023/05/02 07:32:55;;;;;;;0.20;0.20;;;;;;;17.82;72.34;100623.84;5066142;28;20082;-72
2023/05/02 07:35:21;;;;;;;0.20;0.20;;;;;;;18.19;78.73;100624.31;5066236;28;20052;-73
2023/05/02 07:37:46;;;;;;;0.20;0.20;;;;;;;18.39;74.25;100612.19;5065993;28;20021;-73
2023/05/02 07:40:12;;;;;;;0.25;0.25;;;;;;;17.86;64.82;100635.09;5066083;28;20020;-73
2023/05/02 07:42:37;;;;;;;0.28;0.28;;;;;;;17.49;68.03;100637.22;5065611;28;20561;-72
2023/05/02 07:45:03;;;;;;;0.20;0.20;;;;;;;17.93;71.46;100647.09;5065992;28;20028;-73
2023/05/02 07:47:28;;;;;;;0.22;0.22;;;;;;;18.19;68.24;100637.44;5065808;28;20049;-74
2023/05/02 07:49:54;;;;;;;0.20;0.20;;;;;;;18.27;57.91;100645.91;5065721;28;20396;-72
2023/05/02 07:52:20;;;;;;;0.20;0.20;;;;;;;18.07;65.99;100650.09;5065908;28;20592;-71
2023/05/02 07:54:49;;;;;;;0.20;0.20;;;;;;;18.37;61.17;100656.91;5065746;28;20029;-74
2023/05/02 07:57:15;;;;;;;0.20;0.20;;;;;;;18.15;54.69;100662.97;5047653;28;20024;-73
2023/05/02 07:59:41;;;;;;;0.20;0.20;;;;;;;17.68;60.54;100658.47;5065700;28;20445;-72
2023/05/02 08:02:06;;;;;;;0.22;0.22;;;;;;;17.74;63.79;100663.50;5064118;28;20048;-73
2023/05/02 08:04:32;;;;;;;0.20;0.20;;;;;;;18.43;68.22;100659.34;5065406;28;20033;-73
2023/05/02 08:06:58;;;;;;;0.30;0.30;;;;;;;18.73;60.11;100660.84;5065392;28;20032;-72
2023/05/02 08:09:23;;;;;;;0.20;0.20;;;;;;;18.12;50.34;100665.72;5047532;28;20033;-70
2023/05/02 08:11:49;;;;;;;0.20;0.20;;;;;;;17.17;52.16;100679.38;5047496;28;20044;-72
2023/05/02 08:14:15;;;;;;;0.73;0.57;;;;;;;16.56;51.46;100674.16;5065219;28;20059;-73
2023/05/02 08:16:41;;;;;;;0.40;0.40;;;;;;;16.18;54.69;100686.56;5065635;28;20039;-73
2023/05/02 08:19:07;;;;;;;0.25;0.25;;;;;;;16.73;56.70;100686.75;5065209;28;20457;-73
2023/05/02 08:21:32;;;;;;;0.30;0.30;;;;;;;17.60;61.96;100695.47;5047389;28;20030;-73
2023/05/02 08:23:58;;;;;;;0.20;0.20;;;;;;;18.27;56.90;100698.47;5065009;28;20025;-72
2023/05/02 08:26:23;;;;;;;0.50;0.50;;;;;;;18.48;52.20;100685.47;5065437;28;20025;-72
2023/05/02 08:28:50;;;;;;;0.20;0.20;;;;;;;17.82;48.58;100678.97;5065209;28;20029;-73
2023/05/02 08:31:16;;;;;;;0.20;0.20;;;;;;;17.14;49.25;100696.03;5065073;28;20074;-72
2023/05/02 08:33:41;;;;;;;0.20;0.20;;;;;;;17.05;53.92;100706.78;5064981;28;20404;-74
2023/05/02 08:36:15;;;;;;;0.30;0.30;;;;;;;17.42;50.11;100708.28;5046969;28;20102;-72
2023/05/02 08:38:41;;;;;;;0.20;0.20;;;;;;;17.42;50.18;100708.28;5065109;28;20017;-72
2023/05/02 08:41:10;;;;;;;0.20;0.20;;;;;;;18.01;53.39;100708.09;5046930;28;20046;-72
2023/05/02 08:43:40;;;;;;;0.30;0.30;;;;;;;18.63;54.05;100717.31;5046881;28;20048;-72
2023/05/02 08:46:09;;;;;;;0.20;0.20;;;;;;;19.43;55.22;100716.03;5063379;28;20276;-73
2023/05/02 08:48:36;;;;;;;0.68;0.68;;;;;;;19.62;42.95;100717.03;5064542;28;20025;-73
2023/05/02 08:51:02;;;;;;;0.30;0.30;;;;;;;18.70;42.08;100726.72;5046814;28;20028;-72
2023/05/02 08:53:33;;;;;;;0.20;0.20;;;;;;;18.01;39.68;100729.13;5063834;28;20393;-74
2023/05/02 08:55:59;;;;;;;0.20;0.20;;;;;;;17.78;44.96;100740.41;5064586;28;20029;-72
2023/05/02 08:58:24;;;;;;;0.20;0.20;;;;;;;18.32;45.89;100733.31;5064548;28;20493;-74
2023/05/02 09:00:51;;;;;;;0.20;0.20;;;;;;;18.16;40.74;100738.25;5064467;28;20047;-73
2023/05/02 09:03:17;;;;;;;0.20;0.20;;;;;;;18.11;45.44;100744.53;5064163;28;20045;-73
2023/05/02 09:05:50;;;;;;;0.75;0.75;;;;;;;18.15;43.79;100727.78;5064420;28;20071;-74
2023/05/02 09:08:21;;;;;;;0.30;0.30;;;;;;;18.03;45.39;100744.81;5064320;28;20017;-73
2023/05/02 09:10:47;;;;;;;0.30;0.30;;;;;;;18.23;44.38;100748.56;5064540;28;20121;-75
2023/05/02 09:13:28;;;;;;;0.30;0.30;;;;;;;18.55;45.28;100750.03;5064145;28;20262;-74
2023/05/02 09:16:00;;;;;;;0.20;0.20;;;;;;;19.41;44.46;100761.78;5064422;28;20104;-74
2023/05/02 09:18:34;;;;;;;0.20;0.20;;;;;;;20.24;44.67;100753.97;5064180;28;20047;-72
2023/05/02 09:21:00;;;;;;;0.20;0.20;;;;;;;20.64;39.16;100763.69;5064260;28;20028;-72
2023/05/02 09:23:36;;;;;;;0.20;0.20;;;;;;;20.90;35.14;100758.97;5046203;28;20017;-75
2023/05/02 09:26:10;;;;;;;0.28;0.28;;;;;;;20.51;32.86;100768.66;5046236;28;20024;-74
2023/05/02 09:28:47;;;;;;;0.20;0.20;;;;;;;20.39;36.05;100777.94;5064396;28;20048;-73
2023/05/02 09:31:21;;;;;;;0.15;0.15;;;;;;;21.15;37.17;100771.06;5064119;28;20029;-73
2023/05/02 09:33:47;;;;;;;0.20;0.20;;;;;;;21.14;30.88;100779.91;5046012;28;20025;-73
2023/05/02 09:36:16;;;;;;;0.20;0.20;;;;;;;20.49;35.43;100779.25;5064172;28;20021;-73
2023/05/02 09:38:44;;;;;;;0.20;0.20;;;;;;;20.60;38.22;100777.91;5046138;28;20096;-74
2023/05/02 09:41:10;;;;;;;2.15;0.95;;;;;;;21.22;40.25;100784.81;5064150;28;20097;-73
2023/05/02 09:43:36;;;;;;;0.20;0.20;;;;;;;21.72;36.87;100780.66;5063806;28;20052;-74
2023/05/02 09:46:04;;;;;;;0.20;0.20;;;;;;;22.17;36.40;100790.81;5063949;28;20029;-72
2023/05/02 09:48:32;;;;;;;0.20;0.20;;;;;;;22.64;39.43;100798.97;5045954;28;20021;-73
2023/05/02 09:50:57;;;;;;;0.10;0.10;;;;;;;23.07;36.53;100802.91;5063942;28;20021;-72
2023/05/02 09:53:27;;;;;;;0.57;0.57;;;;;;;23.12;34.13;100808.78;5063923;28;20028;-73
2023/05/02 09:56:03;;;;;;;0.20;0.20;;;;;;;22.78;33.65;100812.34;5063903;28;20025;-72
2023/05/02 09:58:32;;;;;;;0.20;0.20;;;;;;;22.56;32.79;100814.41;5046150;28;20045;-73
2023/05/02 10:00:58;;;;;;;0.35;0.35;;;;;;;22.69;31.43;100812.84;5063933;28;20024;-73
2023/05/02 10:03:26;;;;;;;0.20;0.20;;;;;;;22.69;33.04;100812.84;5063628;28;20492;-74
2023/05/02 10:05:53;;;;;;;0.20;0.20;;;;;;;22.96;33.08;100811.41;5049948;28;20116;-73
2023/05/02 10:08:20;;;;;;;0.10;0.10;;;;;;;23.12;33.88;100824.66;5049921;28;20017;-72
2023/05/02 10:10:57;;;;;;;0.20;0.20;;;;;;;23.36;34.90;100811.00;5067757;28;20482;-73
2023/05/02 10:13:26;;;;;;;0.20;0.20;;;;;;;23.42;31.43;100823.94;5049578;28;20025;-73
2023/05/02 10:16:02;;;;;;;0.20;0.20;;;;;;;23.24;29.08;100820.50;5049449;28;20029;-74
2023/05/02 10:18:57;;;;;;;0.20;0.20;;;;;;;23.20;28.84;100833.06;5049406;28;20037;-74
2023/05/02 10:21:26;;;;;;;2.47;1.52;;;;;;;22.76;27.07;100824.78;5060551;28;20481;-74
2023/05/02 10:23:53;;;;;;;0.20;0.20;;;;;;;22.42;26.28;100829.19;5049196;28;20451;-73
2023/05/02 10:26:22;;;;;;;0.20;0.20;;;;;;;22.06;27.11;100830.16;5067481;28;20429;-73
2023/05/02 10:28:49;;;;;;;0.20;0.20;;;;;;;22.11;28.32;100831.63;5067509;28;20020;-74
2023/05/02 10:31:16;;;;;;;0.20;0.20;;;;;;;22.13;27.64;100837.69;5049420;28;20036;-73
2023/05/02 10:33:42;;;;;;;0.20;0.20;;;;;;;22.20;28.83;100832.94;5067248;28;20035;-72
2023/05/02 10:36:13;;;;;;;0.20;0.20;;;;;;;22.21;27.00;100839.06;5067385;28;20048;-73
2023/05/02 10:38:40;;;;;;;0.20;0.20;;;;;;;21.76;24.00;100839.47;5067287;28;20032;-75
2023/05/02 10:41:16;;;;;;;0.20;0.20;;;;;;;20.93;26.26;100851.22;5049498;28;20298;-73
2023/05/02 10:43:46;;;;;;;0.20;0.20;;;;;;;20.82;27.36;100849.03;5067053;28;20031;-71
2023/05/02 10:46:40;;;;;;;0.20;0.20;;;;;;;20.69;26.28;100864.53;5048965;28;20036;-73
2023/05/02 10:49:07;;;;;;;0.20;0.20;;;;;;;20.51;26.85;100855.66;5048987;28;20044;-73
2023/05/02 10:51:34;;;;;;;0.20;0.20;;;;;;;20.19;26.95;100856.13;5049007;28;20413;-72
2023/05/02 10:54:22;;;;;;;0.20;0.20;;;;;;;20.18;28.03;100871.06;5048933;28;20045;-73
2023/05/02 10:57:04;;;;;;;0.20;0.20;;;;;;;20.19;25.50;100871.94;5066904;28;20028;-76
2023/05/02 10:59:34;;;;;;;0.20;0.20;;;;;;;19.53;26.41;100865.72;5065597;28;20092;-74
2023/05/02 11:02:00;;;;;;;0.65;0.55;;;;;;;18.92;27.17;100881.97;5048744;28;20055;-74
2023/05/02 11:05:01;;;;;;;0.20;0.20;;;;;;;17.98;28.10;100876.31;5048715;28;20047;-75
2023/05/02 11:07:27;;;;;;;0.20;0.20;;;;;;;17.30;29.80;100879.25;5066627;28;20046;-74
2023/05/02 11:10:13;;;;;;;0.30;0.30;;;;;;;16.70;31.04;100885.22;5066651;28;20025;-74
2023/05/02 11:12:56;;;;;;;0.20;0.20;;;;;;;16.24;32.14;100888.09;5066738;28;20109;-72
2023/05/02 11:15:27;;;;;;;0.30;0.30;;;;;;;15.96;31.69;100894.81;5065934;28;20056;-73
2023/05/02 11:18:01;;;;;;;0.30;0.30;;;;;;;15.59;31.49;100893.88;5066898;28;20017;-75
2023/05/02 11:20:27;;;;;;;0.20;0.20;;;;;;;15.31;32.31;100899.72;5048443;28;20055;-74
2023/05/02 11:22:55;;;;;;;0.20;0.20;;;;;;;15.00;32.63;100902.91;5048408;28;20071;-74
2023/05/02 11:25:38;;;;;;;0.20;0.20;;;;;;;14.49;32.24;100907.28;5066392;28;20028;-74
2023/05/02 11:28:06;;;;;;;0.30;0.30;;;;;;;13.92;33.30;100906.41;5048490;28;20481;-72
2023/05/02 11:30:47;;;;;;;0.30;0.30;;;;;;;13.50;32.74;100906.09;5048106;28;20021;-73
2023/05/02 11:33:15;;;;;;;0.30;0.30;;;;;;;13.00;32.83;100904.00;5066102;28;20021;-75